createdAt,value
2022-08-21T05:30:27.073Z,95048.50
2022-08-21T05:31:59.284Z,95047.25
2022-08-21T05:33:32.334Z,95046.78
2022-08-21T05:35:08.835Z,95048.19
2022-08-21T05:36:40.906Z,95039.47
2022-08-21T05:38:18.321Z,95040.06
2022-08-21T05:40:21.720Z,95032.28
2022-08-21T05:41:47.442Z,95032.19
2022-08-21T05:43:19.603Z,95032.31
2022-08-21T05:44:52.896Z,95036.47
2022-08-21T05:46:27.449Z,95030.28
2022-08-21T05:47:59.923Z,95032.69
2022-08-21T05:49:32.302Z,95029.94
2022-08-21T05:51:08.881Z,95033.84
2022-08-21T05:52:41.893Z,95031.56
2022-08-21T05:54:14.928Z,95030.75
2022-08-21T05:55:47.407Z,95033.63
2022-08-21T05:57:19.504Z,95039.91
2022-08-21T05:58:51.600Z,95038.78
2022-08-21T06:00:24.499Z,95035.53
2022-08-21T06:01:56.796Z,95051.84
2022-08-21T06:03:33.010Z,95051.13
2022-08-21T06:05:05.330Z,95057.66
2022-08-21T06:06:37.629Z,95062.88
2022-08-21T06:08:09.827Z,95059.47
2022-08-21T06:09:42.337Z,95050.00
2022-08-21T06:11:14.459Z,95049.56
2022-08-21T06:12:46.592Z,95043.56
2022-08-21T06:14:19.735Z,95043.13
2022-08-21T06:16:01.755Z,95054.13
2022-08-21T06:17:34.917Z,95054.75
2022-08-21T06:19:06.999Z,95049.38
2022-08-21T06:20:39.804Z,95049.28
2022-08-21T06:22:12.086Z,95049.63
2022-08-21T06:23:44.822Z,95055.03
2022-08-21T06:25:16.989Z,95048.34
2022-08-21T06:26:50.014Z,95054.38
2022-08-21T06:28:23.089Z,95045.97
2022-08-21T15:52:09.101Z,94816.63
2022-08-21T16:03:50.765Z,94822.03
2022-08-21T16:05:23.538Z,94825.94
2022-08-21T16:07:01.758Z,94824.72
2022-08-21T16:08:38.489Z,94828.03
2022-08-21T16:10:11.925Z,94821.13
2022-08-21T16:11:44.988Z,94835.25
2022-08-21T16:13:31.835Z,94830.53
2022-08-21T16:15:05.491Z,94832.19
2022-08-21T16:16:38.601Z,94834.91
2022-08-21T16:18:11.890Z,94838.78
2022-08-21T16:19:43.975Z,94836.22
2022-08-21T16:21:16.496Z,94836.22
2022-08-21T16:22:49.733Z,94831.16
2022-08-21T16:24:21.722Z,94834.34
2022-08-21T16:25:53.881Z,94824.47
2022-08-21T16:27:27.280Z,94828.91
2022-08-21T16:29:01.237Z,94825.16
2022-08-21T16:30:33.420Z,94828.59
2022-08-21T16:32:06.859Z,94826.97
2022-08-21T16:33:45.234Z,94833.34
2022-08-21T16:35:18.914Z,94833.88
2022-08-21T16:36:51.098Z,94834.44
2022-08-21T16:38:24.454Z,94834.44
2022-08-21T16:39:57.644Z,94834.69
2022-08-21T16:41:33.733Z,94833.34
2022-08-21T16:43:05.860Z,94838.06
2022-08-21T16:44:38.014Z,94834.59
2022-08-21T16:46:11.330Z,94843.59
2022-08-21T16:47:44.998Z,94833.25
2022-08-21T16:49:18.151Z,94838.88
2022-08-21T16:50:51.323Z,94843.38
2022-08-21T16:52:23.464Z,94842.31
2022-08-21T16:53:56.653Z,94846.81
2022-08-21T16:55:29.755Z,94846.25
2022-08-21T16:57:01.944Z,94840.38
2022-08-21T16:58:35.258Z,94846.19
2022-08-21T17:00:16.822Z,94837.97
2022-08-21T17:01:49.965Z,94843.25
2022-08-21T17:03:27.694Z,94839.50
2022-08-21T17:05:02.885Z,94849.78
2022-08-21T17:06:34.921Z,94844.94
2022-08-21T17:08:09.420Z,94837.81
2022-08-21T17:09:42.717Z,94836.22
2022-08-21T17:11:36.835Z,94841.75
2022-08-21T17:13:11.286Z,94836.13
2022-08-21T17:14:43.402Z,94841.44
2022-08-21T17:16:16.777Z,94832.44
2022-08-21T17:17:50.511Z,94834.28
2022-08-21T17:19:23.898Z,94840.38
2022-08-21T17:20:55.979Z,94837.97
2022-08-21T17:22:28.080Z,94836.63
2022-08-21T17:24:00.278Z,94844.22
2022-08-21T17:25:33.794Z,94847.66
2022-08-21T17:27:07.560Z,94846.56
2022-08-21T17:28:40.847Z,94854.72
2022-08-21T17:30:13.580Z,94851.25
2022-08-21T17:31:47.115Z,94853.91
2022-08-21T17:33:19.983Z,94861.84
2022-08-21T17:34:52.494Z,94861.06
2022-08-21T17:36:30.104Z,94862.91
2022-08-21T17:38:02.095Z,94858.97
2022-08-21T17:39:37.581Z,94858.72
2022-08-21T17:41:10.916Z,94858.50
2022-08-21T17:42:44.273Z,94857.94
2022-08-21T17:44:18.832Z,94853.66
2022-08-21T17:45:51.048Z,94860.03
2022-08-21T17:47:23.494Z,94869.69
2022-08-21T17:48:56.873Z,94875.47
2022-08-21T17:50:29.898Z,94878.84
2022-08-21T17:52:02.081Z,94887.47
2022-08-21T17:53:35.298Z,94891.03
2022-08-21T17:55:08.500Z,94896.53
2022-08-21T17:56:41.596Z,94898.63
2022-08-21T17:58:14.415Z,94899.09
2022-08-21T17:59:47.790Z,94905.44
2022-08-21T18:01:20.991Z,94912.22
2022-08-21T18:03:00.128Z,94908.69
2022-08-21T18:04:32.600Z,94912.34
2022-08-21T18:06:04.816Z,94911.56
2022-08-21T18:07:38.146Z,94914.22
2022-08-21T18:09:13.486Z,94922.38
2022-08-21T18:10:47.065Z,94922.38
2022-08-21T18:12:19.286Z,94923.63
2022-08-21T18:13:52.341Z,94924.34
2022-08-21T18:15:24.460Z,94916.19
2022-08-21T18:16:57.849Z,94914.81
2022-08-21T18:18:33.378Z,94919.28
2022-08-21T18:20:06.737Z,94918.56
2022-08-21T18:21:39.785Z,94920.97
2022-08-21T18:23:12.890Z,94924.22
2022-08-21T18:24:45.042Z,94926.03
2022-08-21T18:26:26.665Z,94915.59
2022-08-21T18:28:00.974Z,94928.16
2022-08-21T18:29:35.766Z,94927.34
2022-08-21T18:31:19.748Z,94923.31
2022-08-21T18:32:54.457Z,94918.16
2022-08-21T18:34:28.550Z,94927.38
2022-08-21T18:36:01.574Z,94931.28
2022-08-21T18:37:38.053Z,94940.72
2022-08-21T18:39:34.932Z,94935.44
2022-08-21T18:41:03.066Z,94932.69
2022-08-21T18:42:55.493Z,94933.94
2022-08-21T18:44:28.248Z,94937.47
2022-08-21T18:46:01.408Z,94938.41
2022-08-21T18:47:41.500Z,94938.66
2022-08-21T18:49:13.729Z,94930.94
2022-08-21T18:52:51.877Z,94936.22
2022-08-21T18:54:26.980Z,94936.81
2022-08-21T18:56:05.261Z,94931.84
2022-08-21T18:57:38.773Z,94938.72
2022-08-21T18:59:12.691Z,94949.53
2022-08-21T19:00:48.651Z,94936.09
2022-08-21T19:02:22.859Z,94935.75
2022-08-21T19:03:56.149Z,94939.53
2022-08-21T19:05:28.228Z,94935.53
2022-08-21T19:07:00.337Z,94934.13
2022-08-21T19:08:32.482Z,94935.75
2022-08-21T19:10:27.831Z,94927.22
2022-08-21T19:11:58.566Z,94928.28
2022-08-21T19:13:31.394Z,94930.81
2022-08-21T19:15:04.954Z,94925.19
2022-08-21T19:16:38.554Z,94929.63
2022-08-21T19:18:12.128Z,94921.16
2022-08-21T19:19:44.393Z,94917.84
2022-08-21T19:21:16.896Z,94916.09
2022-08-21T19:22:53.470Z,94922.16
2022-08-21T19:24:26.430Z,94916.31
2022-08-21T19:26:02.862Z,94918.06
2022-08-21T19:27:36.305Z,94918.16
2022-08-21T19:29:09.735Z,94916.53
2022-08-21T19:30:47.974Z,94908.06
2022-08-21T19:32:20.205Z,94912.66
2022-08-21T19:33:59.020Z,94908.50
2022-08-21T19:35:46.962Z,94909.22
2022-08-21T19:37:24.582Z,94906.22
2022-08-21T19:38:57.902Z,94900.00
2022-08-21T19:40:31.078Z,94901.47
2022-08-21T19:42:04.502Z,94907.88
2022-08-21T19:43:40.918Z,94894.38
2022-08-21T19:45:13.359Z,94895.19
2022-08-21T19:46:46.141Z,94895.41
2022-08-21T19:48:22.908Z,94890.47
2022-08-21T19:49:58.298Z,94900.25
2022-08-21T19:51:30.780Z,94904.63
2022-08-21T19:53:03.369Z,94897.16
2022-08-21T19:54:35.713Z,94899.00
2022-08-21T19:56:12.782Z,94884.75
2022-08-21T19:57:45.939Z,94897.28
2022-08-21T20:01:16.769Z,94893.72
2022-08-21T20:02:50.272Z,94893.13
2022-08-21T20:04:22.909Z,94897.72
2022-08-21T20:05:55.052Z,94896.59
2022-08-21T20:07:28.184Z,94905.41
2022-08-21T20:09:08.374Z,94903.13
2022-08-21T20:10:44.319Z,94907.38
2022-08-21T20:12:16.663Z,94912.66
2022-08-21T20:13:49.539Z,94902.09
2022-08-21T20:15:22.834Z,94903.22
2022-08-21T20:16:58.204Z,94899.34
2022-08-21T20:18:33.561Z,94903.34
2022-08-21T20:20:06.103Z,94901.75
2022-08-21T20:21:44.003Z,94909.34
2022-08-21T20:23:19.705Z,94905.19
2022-08-21T20:25:02.613Z,94909.69
2022-08-21T20:26:36.169Z,94907.25
2022-08-21T20:28:09.715Z,94904.41
2022-08-21T20:29:42.821Z,94910.94
2022-08-21T20:31:17.255Z,94912.53
2022-08-21T20:32:51.738Z,94912.22
2022-08-21T20:34:25.539Z,94910.25
2022-08-21T20:35:57.620Z,94911.50
2022-08-21T20:37:36.345Z,94915.53
2022-08-21T20:39:11.321Z,94917.81
2022-08-21T20:40:44.242Z,94912.31
2022-08-21T20:42:16.961Z,94909.69
2022-08-21T20:43:50.504Z,94910.47
2022-08-21T20:45:24.213Z,94906.44
2022-08-21T20:46:58.168Z,94912.78
2022-08-21T20:48:49.361Z,94909.91
2022-08-21T20:50:33.564Z,94919.50
2022-08-21T20:52:09.507Z,94913.97
2022-08-21T20:53:49.266Z,94912.03
2022-08-21T20:55:29.169Z,94907.00
2022-08-21T20:57:13.632Z,94906.69
2022-08-21T20:59:02.331Z,94905.41
2022-08-21T21:00:36.030Z,94901.13
2022-08-21T21:02:17.217Z,94899.31
2022-08-21T21:03:55.001Z,94893.19
2022-08-21T21:05:29.857Z,94897.00
2022-08-21T21:07:06.549Z,94898.03
2022-08-21T21:08:46.736Z,94894.47
2022-08-21T21:10:27.310Z,94895.84
2022-08-21T21:12:04.452Z,94899.41
2022-08-21T21:13:44.285Z,94901.25
2022-08-21T21:15:27.817Z,94899.31
2022-08-21T21:17:02.046Z,94903.31
2022-08-21T21:18:40.822Z,94901.50
2022-08-21T21:20:39.732Z,94900.69
2022-08-21T21:22:33.066Z,94898.88
2022-08-21T21:24:08.643Z,94902.53
2022-08-21T21:27:49.251Z,94913.88
2022-08-21T21:29:25.743Z,94906.63
2022-08-21T21:31:03.865Z,94901.34
2022-08-21T21:32:37.182Z,94898.50
2022-08-21T21:34:17.207Z,94902.97
2022-08-21T21:35:54.631Z,94900.00
2022-08-21T21:37:32.744Z,94912.41
2022-08-21T21:39:11.540Z,94917.69
2022-08-21T21:41:03.210Z,94913.19
2022-08-21T21:44:48.927Z,94904.59
2022-08-21T21:46:41.836Z,94909.72
2022-08-21T21:48:21.340Z,94908.91
2022-08-21T21:50:02.765Z,94898.69
2022-08-21T21:51:39.007Z,94898.97
2022-08-21T21:53:20.148Z,94904.34
2022-08-21T21:55:05.860Z,94899.53
2022-08-21T21:56:52.709Z,94901.56
2022-08-21T21:58:43.631Z,94911.91
2022-08-21T22:00:20.794Z,94911.91
2022-08-21T22:02:15.560Z,94905.59
2022-08-21T22:04:09.665Z,94903.53
2022-08-21T22:05:42.772Z,94899.22
2022-08-21T22:07:21.421Z,94905.06
2022-08-21T22:08:54.558Z,94898.91
2022-08-21T22:10:43.112Z,94889.88
2022-08-21T22:12:28.331Z,94894.25
2022-08-21T22:14:08.502Z,94902.53
2022-08-21T22:15:41.569Z,94893.34
2022-08-21T22:17:26.015Z,94901.25
2022-08-21T22:19:23.684Z,94902.72
2022-08-21T22:21:03.902Z,94908.28
2022-08-21T22:22:36.667Z,94905.22
2022-08-21T22:24:27.840Z,94908.22
2022-08-21T22:26:04.783Z,94902.28
2022-08-21T22:27:39.090Z,94888.84
2022-08-21T22:29:15.393Z,94884.28
2022-08-21T22:30:50.373Z,94887.50
2022-08-21T22:32:28.731Z,94886.78
2022-08-21T22:34:06.630Z,94888.56
2022-08-21T22:35:51.902Z,94890.53
2022-08-21T22:37:33.549Z,94893.31
2022-08-21T22:39:14.564Z,94897.25
2022-08-21T22:40:47.601Z,94898.56
2022-08-21T22:42:24.963Z,94906.59
2022-08-21T22:47:52.218Z,94894.34
2022-08-21T22:49:34.312Z,94896.16
2022-08-21T22:51:12.870Z,94897.34
2022-08-21T22:52:46.561Z,94897.69
2022-08-21T22:54:34.436Z,94892.63
2022-08-21T22:56:08.014Z,94896.06
2022-08-21T22:57:41.640Z,94897.91
2022-08-21T22:59:27.486Z,94897.91
2022-08-21T23:01:20.167Z,94901.56
2022-08-21T23:02:53.425Z,94898.56
2022-08-21T23:04:28.155Z,94901.09
2022-08-21T23:06:03.112Z,94908.88
2022-08-21T23:09:45.375Z,94902.81
2022-08-21T23:11:23.438Z,94895.75
2022-08-21T23:13:03.061Z,94893.22
2022-08-21T23:14:41.760Z,94883.84
2022-08-21T23:16:24.352Z,94879.34
2022-08-21T23:17:59.173Z,94881.56
2022-08-21T23:19:52.523Z,94872.25
2022-08-21T23:21:40.836Z,94878.53
2022-08-21T23:23:26.843Z,94879.41
2022-08-21T23:25:12.416Z,94879.19
2022-08-21T23:26:54.625Z,94878.06
2022-08-21T23:28:55.210Z,94878.22
2022-08-21T23:30:39.499Z,94882.44
2022-08-21T23:32:35.490Z,94885.09
2022-08-21T23:34:38.470Z,94887.38
2022-08-21T23:36:41.437Z,94884.94
2022-08-21T23:38:36.821Z,94881.53
2022-08-21T23:40:15.127Z,94886.78
2022-08-21T23:41:59.671Z,94889.22
2022-08-21T23:44:00.956Z,94885.75
2022-08-21T23:45:36.081Z,94889.88
2022-08-21T23:47:20.049Z,94895.03
2022-08-21T23:48:52.090Z,94889.75
2022-08-21T23:50:33.089Z,94903.19
2022-08-21T23:52:36.027Z,94908.81
2022-08-21T23:54:34.239Z,94905.97
2022-08-21T23:56:07.307Z,94903.41
2022-08-21T23:57:57.990Z,94909.34
2022-08-21T23:59:29.977Z,94904.22
